sensor_id;sensor_type;location;lat;lon;timestamp;P1;durP1;ratioP1;P2;durP2;ratioP2
3541;SDS011;1785;47.388;8.538;2022-12-07T00:01:10;32.47;;;24.00;;
3541;SDS011;1785;47.388;8.538;2022-12-07T00:03:38;34.50;;;26.00;;
3541;SDS011;1785;47.388;8.538;2022-12-07T00:06:06;28.80;;;22.20;;
3541;SDS011;1785;47.388;8.538;2022-12-07T00:08:34;30.50;;;25.00;;
3541;SDS011;1785;47.388;8.538;2022-12-07T00:11:01;30.67;;;24.27;;
3541;SDS011;1785;47.388;8.538;2022-12-07T00:13:29;36.13;;;25.90;;
3541;SDS011;1785;47.388;8.538;2022-12-07T00:15:55;36.80;;;24.17;;
3541;SDS011;1785;47.388;8.538;2022-12-07T00:18:25;28.67;;;22.97;;
3541;SDS011;1785;47.388;8.538;2022-12-07T00:20:52;33.00;;;24.67;;
3541;SDS011;1785;47.388;8.538;2022-12-07T00:23:18;29.20;;;23.27;;
3541;SDS011;1785;47.388;8.538;2022-12-07T00:25:44;29.63;;;23.10;;
3541;SDS011;1785;47.388;8.538;2022-12-07T00:28:10;31.40;;;25.17;;
3541;SDS011;1785;47.388;8.538;2022-12-07T00:30:36;28.57;;;23.50;;
3541;SDS011;1785;47.388;8.538;2022-12-07T00:33:03;35.73;;;24.90;;
3541;SDS011;1785;47.388;8.538;2022-12-07T00:35:29;29.07;;;24.00;;
3541;SDS011;1785;47.388;8.538;2022-12-07T00:37:56;36.97;;;26.37;;
3541;SDS011;1785;47.388;8.538;2022-12-07T00:40:23;32.07;;;23.63;;
3541;SDS011;1785;47.388;8.538;2022-12-07T00:42:49;30.07;;;23.80;;
3541;SDS011;1785;47.388;8.538;2022-12-07T00:45:15;27.53;;;23.27;;
3541;SDS011;1785;47.388;8.538;2022-12-07T00:47:42;27.50;;;23.40;;
3541;SDS011;1785;47.388;8.538;2022-12-07T00:50:08;26.00;;;22.07;;
3541;SDS011;1785;47.388;8.538;2022-12-07T00:52:34;29.13;;;22.90;;
3541;SDS011;1785;47.388;8.538;2022-12-07T00:55:01;27.30;;;22.33;;
3541;SDS011;1785;47.388;8.538;2022-12-07T00:57:28;31.43;;;24.10;;
3541;SDS011;1785;47.388;8.538;2022-12-07T00:59:56;29.70;;;23.03;;
3541;SDS011;1785;47.388;8.538;2022-12-07T01:02:22;28.63;;;24.17;;
3541;SDS011;1785;47.388;8.538;2022-12-07T01:04:49;29.30;;;24.77;;
3541;SDS011;1785;47.388;8.538;2022-12-07T01:07:15;27.00;;;23.83;;
3541;SDS011;1785;47.388;8.538;2022-12-07T01:09:41;26.83;;;22.53;;
3541;SDS011;1785;47.388;8.538;2022-12-07T01:12:08;26.27;;;21.53;;
3541;SDS011;1785;47.388;8.538;2022-12-07T01:14:34;34.03;;;24.57;;
3541;SDS011;1785;47.388;8.538;2022-12-07T01:17:00;31.57;;;24.43;;
3541;SDS011;1785;47.388;8.538;2022-12-07T01:19:27;28.63;;;23.03;;
3541;SDS011;1785;47.388;8.538;2022-12-07T01:21:53;29.80;;;24.10;;
3541;SDS011;1785;47.388;8.538;2022-12-07T01:24:19;28.67;;;23.20;;
3541;SDS011;1785;47.388;8.538;2022-12-07T01:26:45;32.03;;;23.53;;
3541;SDS011;1785;47.388;8.538;2022-12-07T01:29:14;32.37;;;23.80;;
3541;SDS011;1785;47.388;8.538;2022-12-07T01:31:40;25.90;;;23.13;;
3541;SDS011;1785;47.388;8.538;2022-12-07T01:34:07;30.20;;;24.20;;
3541;SDS011;1785;47.388;8.538;2022-12-07T01:36:34;30.27;;;25.00;;
3541;SDS011;1785;47.388;8.538;2022-12-07T01:39:02;31.93;;;25.13;;
3541;SDS011;1785;47.388;8.538;2022-12-07T01:41:30;29.07;;;22.43;;
3541;SDS011;1785;47.388;8.538;2022-12-07T01:44:09;29.00;;;23.83;;
3541;SDS011;1785;47.388;8.538;2022-12-07T01:46:43;30.33;;;23.20;;
3541;SDS011;1785;47.388;8.538;2022-12-07T01:49:12;31.57;;;24.53;;
3541;SDS011;1785;47.388;8.538;2022-12-07T01:51:41;31.23;;;24.20;;
3541;SDS011;1785;47.388;8.538;2022-12-07T01:54:10;33.37;;;23.90;;
3541;SDS011;1785;47.388;8.538;2022-12-07T01:56:38;26.60;;;22.50;;
3541;SDS011;1785;47.388;8.538;2022-12-07T01:59:06;28.73;;;22.63;;
3541;SDS011;1785;47.388;8.538;2022-12-07T02:01:33;29.50;;;22.70;;
3541;SDS011;1785;47.388;8.538;2022-12-07T02:04:00;31.37;;;24.07;;
3541;SDS011;1785;47.388;8.538;2022-12-07T02:06:27;27.93;;;23.10;;
3541;SDS011;1785;47.388;8.538;2022-12-07T02:08:54;27.70;;;23.70;;
3541;SDS011;1785;47.388;8.538;2022-12-07T02:11:20;30.83;;;23.70;;
3541;SDS011;1785;47.388;8.538;2022-12-07T02:13:47;29.07;;;23.20;;
3541;SDS011;1785;47.388;8.538;2022-12-07T02:16:18;30.17;;;23.37;;
3541;SDS011;1785;47.388;8.538;2022-12-07T02:18:57;31.60;;;24.00;;
3541;SDS011;1785;47.388;8.538;2022-12-07T02:21:36;28.57;;;24.20;;
3541;SDS011;1785;47.388;8.538;2022-12-07T02:24:18;29.73;;;24.80;;
3541;SDS011;1785;47.388;8.538;2022-12-07T02:27:24;33.47;;;23.73;;
3541;SDS011;1785;47.388;8.538;2022-12-07T02:30:10;30.50;;;23.47;;
3541;SDS011;1785;47.388;8.538;2022-12-07T02:32:43;31.97;;;24.60;;
3541;SDS011;1785;47.388;8.538;2022-12-07T02:35:15;28.07;;;24.13;;
3541;SDS011;1785;47.388;8.538;2022-12-07T02:37:48;34.00;;;25.57;;
3541;SDS011;1785;47.388;8.538;2022-12-07T02:40:22;31.70;;;24.30;;
3541;SDS011;1785;47.388;8.538;2022-12-07T02:42:53;26.03;;;22.30;;
3541;SDS011;1785;47.388;8.538;2022-12-07T02:45:25;30.90;;;23.03;;
3541;SDS011;1785;47.388;8.538;2022-12-07T02:47:53;26.17;;;21.73;;
3541;SDS011;1785;47.388;8.538;2022-12-07T02:50:23;28.93;;;24.03;;
3541;SDS011;1785;47.388;8.538;2022-12-07T02:52:50;29.93;;;23.87;;
3541;SDS011;1785;47.388;8.538;2022-12-07T02:55:17;29.70;;;23.63;;
3541;SDS011;1785;47.388;8.538;2022-12-07T02:57:52;30.27;;;23.30;;
3541;SDS011;1785;47.388;8.538;2022-12-07T03:00:27;30.87;;;24.10;;
3541;SDS011;1785;47.388;8.538;2022-12-07T03:02:56;33.17;;;24.40;;
3541;SDS011;1785;47.388;8.538;2022-12-07T03:05:45;33.80;;;24.00;;
3541;SDS011;1785;47.388;8.538;2022-12-07T03:08:23;29.90;;;24.00;;
3541;SDS011;1785;47.388;8.538;2022-12-07T03:10:57;34.30;;;24.43;;
3541;SDS011;1785;47.388;8.538;2022-12-07T03:13:28;33.13;;;24.57;;
3541;SDS011;1785;47.388;8.538;2022-12-07T03:16:00;33.17;;;24.93;;
3541;SDS011;1785;47.388;8.538;2022-12-07T03:18:30;33.50;;;27.47;;
3541;SDS011;1785;47.388;8.538;2022-12-07T03:21:02;32.30;;;25.23;;
3541;SDS011;1785;47.388;8.538;2022-12-07T03:23:32;31.90;;;24.13;;
3541;SDS011;1785;47.388;8.538;2022-12-07T03:26:01;36.50;;;26.37;;
3541;SDS011;1785;47.388;8.538;2022-12-07T03:28:31;34.30;;;24.23;;
3541;SDS011;1785;47.388;8.538;2022-12-07T03:31:03;35.00;;;25.90;;
3541;SDS011;1785;47.388;8.538;2022-12-07T03:33:36;34.70;;;26.30;;
3541;SDS011;1785;47.388;8.538;2022-12-07T03:36:08;34.03;;;24.93;;
3541;SDS011;1785;47.388;8.538;2022-12-07T03:38:38;35.63;;;26.27;;
3541;SDS011;1785;47.388;8.538;2022-12-07T03:41:11;31.57;;;24.10;;
3541;SDS011;1785;47.388;8.538;2022-12-07T03:43:42;34.40;;;26.83;;
3541;SDS011;1785;47.388;8.538;2022-12-07T03:46:11;34.50;;;27.00;;
3541;SDS011;1785;47.388;8.538;2022-12-07T03:48:45;34.40;;;25.80;;
3541;SDS011;1785;47.388;8.538;2022-12-07T03:51:19;38.93;;;27.50;;
3541;SDS011;1785;47.388;8.538;2022-12-07T03:53:48;35.00;;;25.37;;
3541;SDS011;1785;47.388;8.538;2022-12-07T03:56:17;26.90;;;22.73;;
3541;SDS011;1785;47.388;8.538;2022-12-07T03:58:45;33.90;;;25.37;;
3541;SDS011;1785;47.388;8.538;2022-12-07T04:01:12;34.37;;;25.97;;
3541;SDS011;1785;47.388;8.538;2022-12-07T04:03:39;34.40;;;25.43;;
3541;SDS011;1785;47.388;8.538;2022-12-07T04:06:05;32.43;;;24.47;;
3541;SDS011;1785;47.388;8.538;2022-12-07T04:08:31;35.27;;;24.00;;
3541;SDS011;1785;47.388;8.538;2022-12-07T04:10:58;27.50;;;23.73;;
3541;SDS011;1785;47.388;8.538;2022-12-07T04:13:24;27.23;;;22.40;;
3541;SDS011;1785;47.388;8.538;2022-12-07T04:15:50;26.23;;;20.90;;
3541;SDS011;1785;47.388;8.538;2022-12-07T04:18:17;28.70;;;21.77;;
3541;SDS011;1785;47.388;8.538;2022-12-07T04:20:43;26.83;;;20.93;;
3541;SDS011;1785;47.388;8.538;2022-12-07T04:23:11;29.23;;;23.10;;
3541;SDS011;1785;47.388;8.538;2022-12-07T04:25:37;27.13;;;21.63;;
3541;SDS011;1785;47.388;8.538;2022-12-07T04:28:03;29.37;;;23.43;;
3541;SDS011;1785;47.388;8.538;2022-12-07T04:30:30;31.33;;;22.50;;
3541;SDS011;1785;47.388;8.538;2022-12-07T04:32:56;28.97;;;23.20;;
3541;SDS011;1785;47.388;8.538;2022-12-07T04:35:23;27.10;;;22.17;;
3541;SDS011;1785;47.388;8.538;2022-12-07T04:37:50;29.67;;;23.20;;
3541;SDS011;1785;47.388;8.538;2022-12-07T04:40:16;30.03;;;22.40;;
3541;SDS011;1785;47.388;8.538;2022-12-07T04:42:43;32.53;;;22.00;;
3541;SDS011;1785;47.388;8.538;2022-12-07T04:45:09;27.43;;;21.80;;
3541;SDS011;1785;47.388;8.538;2022-12-07T04:47:35;34.30;;;22.50;;
3541;SDS011;1785;47.388;8.538;2022-12-07T04:50:02;28.50;;;21.63;;
3541;SDS011;1785;47.388;8.538;2022-12-07T04:52:30;26.30;;;21.10;;
3541;SDS011;1785;47.388;8.538;2022-12-07T04:54:56;27.53;;;21.33;;
3541;SDS011;1785;47.388;8.538;2022-12-07T04:57:22;27.30;;;21.37;;
3541;SDS011;1785;47.388;8.538;2022-12-07T04:59:48;26.37;;;20.30;;
3541;SDS011;1785;47.388;8.538;2022-12-07T05:02:14;28.70;;;21.30;;
3541;SDS011;1785;47.388;8.538;2022-12-07T05:04:40;26.73;;;22.20;;
3541;SDS011;1785;47.388;8.538;2022-12-07T05:07:07;28.63;;;21.17;;
3541;SDS011;1785;47.388;8.538;2022-12-07T05:09:33;30.50;;;20.80;;
3541;SDS011;1785;47.388;8.538;2022-12-07T05:12:00;27.20;;;21.93;;
3541;SDS011;1785;47.388;8.538;2022-12-07T05:14:26;28.43;;;21.57;;
3541;SDS011;1785;47.388;8.538;2022-12-07T05:16:52;25.90;;;21.37;;
3541;SDS011;1785;47.388;8.538;2022-12-07T05:19:18;27.57;;;20.50;;
3541;SDS011;1785;47.388;8.538;2022-12-07T05:21:45;27.73;;;21.77;;
3541;SDS011;1785;47.388;8.538;2022-12-07T05:24:13;31.57;;;21.77;;
3541;SDS011;1785;47.388;8.538;2022-12-07T05:26:41;24.53;;;21.00;;
3541;SDS011;1785;47.388;8.538;2022-12-07T05:29:09;27.27;;;20.87;;
3541;SDS011;1785;47.388;8.538;2022-12-07T05:31:37;26.93;;;21.73;;
3541;SDS011;1785;47.388;8.538;2022-12-07T05:34:03;27.53;;;21.87;;
3541;SDS011;1785;47.388;8.538;2022-12-07T05:36:29;32.57;;;23.23;;
3541;SDS011;1785;47.388;8.538;2022-12-07T05:38:57;36.00;;;24.13;;
3541;SDS011;1785;47.388;8.538;2022-12-07T05:41:23;30.23;;;22.90;;
3541;SDS011;1785;47.388;8.538;2022-12-07T05:44:14;31.63;;;22.23;;
3541;SDS011;1785;47.388;8.538;2022-12-07T05:46:40;33.93;;;23.73;;
3541;SDS011;1785;47.388;8.538;2022-12-07T05:49:06;30.73;;;24.00;;
3541;SDS011;1785;47.388;8.538;2022-12-07T05:51:33;33.53;;;23.63;;
3541;SDS011;1785;47.388;8.538;2022-12-07T05:53:59;32.00;;;23.10;;
3541;SDS011;1785;47.388;8.538;2022-12-07T05:56:25;34.33;;;24.20;;
3541;SDS011;1785;47.388;8.538;2022-12-07T05:58:52;36.50;;;25.00;;
3541;SDS011;1785;47.388;8.538;2022-12-07T06:01:37;32.40;;;24.43;;
3541;SDS011;1785;47.388;8.538;2022-12-07T06:04:03;32.40;;;23.83;;
3541;SDS011;1785;47.388;8.538;2022-12-07T06:06:29;32.90;;;25.60;;
3541;SDS011;1785;47.388;8.538;2022-12-07T06:08:56;32.97;;;24.50;;
3541;SDS011;1785;47.388;8.538;2022-12-07T06:11:23;35.40;;;25.07;;
3541;SDS011;1785;47.388;8.538;2022-12-07T06:14:07;32.23;;;24.13;;
3541;SDS011;1785;47.388;8.538;2022-12-07T06:16:33;29.40;;;22.03;;
3541;SDS011;1785;47.388;8.538;2022-12-07T06:19:00;40.67;;;25.30;;
3541;SDS011;1785;47.388;8.538;2022-12-07T06:21:27;32.53;;;23.20;;
3541;SDS011;1785;47.388;8.538;2022-12-07T06:23:53;33.30;;;23.83;;
3541;SDS011;1785;47.388;8.538;2022-12-07T06:26:19;36.20;;;26.30;;
3541;SDS011;1785;47.388;8.538;2022-12-07T06:28:46;33.63;;;26.70;;
3541;SDS011;1785;47.388;8.538;2022-12-07T06:31:13;36.57;;;24.67;;
3541;SDS011;1785;47.388;8.538;2022-12-07T06:33:40;36.37;;;25.63;;
3541;SDS011;1785;47.388;8.538;2022-12-07T06:36:07;33.33;;;24.80;;
3541;SDS011;1785;47.388;8.538;2022-12-07T06:38:33;32.33;;;23.90;;
3541;SDS011;1785;47.388;8.538;2022-12-07T06:41:00;39.77;;;26.07;;
3541;SDS011;1785;47.388;8.538;2022-12-07T06:43:26;36.40;;;26.33;;
3541;SDS011;1785;47.388;8.538;2022-12-07T06:45:52;37.27;;;26.67;;
3541;SDS011;1785;47.388;8.538;2022-12-07T06:48:19;38.67;;;27.90;;
3541;SDS011;1785;47.388;8.538;2022-12-07T06:50:46;41.30;;;28.53;;
3541;SDS011;1785;47.388;8.538;2022-12-07T06:53:13;43.10;;;28.17;;
3541;SDS011;1785;47.388;8.538;2022-12-07T06:55:39;37.83;;;27.50;;
3541;SDS011;1785;47.388;8.538;2022-12-07T06:58:06;32.73;;;26.17;;
3541;SDS011;1785;47.388;8.538;2022-12-07T07:00:33;38.53;;;26.40;;
3541;SDS011;1785;47.388;8.538;2022-12-07T07:03:00;35.97;;;27.20;;
3541;SDS011;1785;47.388;8.538;2022-12-07T07:05:26;37.23;;;26.50;;
3541;SDS011;1785;47.388;8.538;2022-12-07T07:07:52;40.07;;;28.83;;
3541;SDS011;1785;47.388;8.538;2022-12-07T07:10:20;37.73;;;26.20;;
3541;SDS011;1785;47.388;8.538;2022-12-07T07:12:46;36.07;;;26.33;;
3541;SDS011;1785;47.388;8.538;2022-12-07T07:15:13;41.13;;;29.03;;
3541;SDS011;1785;47.388;8.538;2022-12-07T07:17:39;38.90;;;27.77;;
3541;SDS011;1785;47.388;8.538;2022-12-07T07:20:06;39.70;;;27.83;;
3541;SDS011;1785;47.388;8.538;2022-12-07T07:22:33;35.93;;;25.50;;
3541;SDS011;1785;47.388;8.538;2022-12-07T07:25:00;43.13;;;28.27;;
3541;SDS011;1785;47.388;8.538;2022-12-07T07:27:27;44.93;;;27.87;;
3541;SDS011;1785;47.388;8.538;2022-12-07T07:29:53;38.60;;;28.53;;
3541;SDS011;1785;47.388;8.538;2022-12-07T07:32:19;39.70;;;26.00;;
3541;SDS011;1785;47.388;8.538;2022-12-07T07:34:47;43.20;;;26.80;;
3541;SDS011;1785;47.388;8.538;2022-12-07T07:37:13;41.33;;;28.80;;
3541;SDS011;1785;47.388;8.538;2022-12-07T07:39:39;43.50;;;29.63;;
3541;SDS011;1785;47.388;8.538;2022-12-07T07:42:06;45.33;;;29.27;;
3541;SDS011;1785;47.388;8.538;2022-12-07T07:44:33;38.63;;;27.43;;
3541;SDS011;1785;47.388;8.538;2022-12-07T07:47:00;38.53;;;28.50;;
3541;SDS011;1785;47.388;8.538;2022-12-07T07:49:26;37.33;;;28.50;;
3541;SDS011;1785;47.388;8.538;2022-12-07T07:51:53;43.97;;;29.10;;
3541;SDS011;1785;47.388;8.538;2022-12-07T07:54:19;42.73;;;29.63;;
3541;SDS011;1785;47.388;8.538;2022-12-07T07:56:46;39.50;;;24.80;;
3541;SDS011;1785;47.388;8.538;2022-12-07T07:59:12;45.30;;;32.20;;
3541;SDS011;1785;47.388;8.538;2022-12-07T08:01:40;41.80;;;29.63;;
3541;SDS011;1785;47.388;8.538;2022-12-07T08:04:06;41.10;;;29.00;;
3541;SDS011;1785;47.388;8.538;2022-12-07T08:06:34;43.70;;;29.30;;
3541;SDS011;1785;47.388;8.538;2022-12-07T08:09:00;38.37;;;28.50;;
3541;SDS011;1785;47.388;8.538;2022-12-07T08:11:27;37.20;;;27.77;;
3541;SDS011;1785;47.388;8.538;2022-12-07T08:13:54;45.40;;;30.40;;
3541;SDS011;1785;47.388;8.538;2022-12-07T08:16:21;51.90;;;30.77;;
3541;SDS011;1785;47.388;8.538;2022-12-07T08:18:48;47.77;;;31.13;;
3541;SDS011;1785;47.388;8.538;2022-12-07T08:21:14;50.73;;;30.07;;
3541;SDS011;1785;47.388;8.538;2022-12-07T08:23:41;44.47;;;28.80;;
3541;SDS011;1785;47.388;8.538;2022-12-07T08:26:08;50.33;;;31.30;;
3541;SDS011;1785;47.388;8.538;2022-12-07T08:28:36;45.90;;;29.63;;
3541;SDS011;1785;47.388;8.538;2022-12-07T08:31:03;46.60;;;29.67;;
3541;SDS011;1785;47.388;8.538;2022-12-07T08:33:31;49.10;;;31.67;;
3541;SDS011;1785;47.388;8.538;2022-12-07T08:36:00;47.63;;;29.47;;
3541;SDS011;1785;47.388;8.538;2022-12-07T08:38:27;40.90;;;28.83;;
3541;SDS011;1785;47.388;8.538;2022-12-07T08:40:53;47.00;;;30.60;;
3541;SDS011;1785;47.388;8.538;2022-12-07T08:43:20;48.67;;;32.27;;
3541;SDS011;1785;47.388;8.538;2022-12-07T08:45:47;49.53;;;30.67;;
3541;SDS011;1785;47.388;8.538;2022-12-07T08:48:19;39.83;;;29.20;;
3541;SDS011;1785;47.388;8.538;2022-12-07T08:50:49;44.40;;;29.90;;
3541;SDS011;1785;47.388;8.538;2022-12-07T08:53:17;44.70;;;30.30;;
3541;SDS011;1785;47.388;8.538;2022-12-07T08:55:43;48.70;;;30.90;;
3541;SDS011;1785;47.388;8.538;2022-12-07T08:58:10;38.93;;;27.70;;
3541;SDS011;1785;47.388;8.538;2022-12-07T09:00:37;44.83;;;29.97;;
3541;SDS011;1785;47.388;8.538;2022-12-07T09:03:04;40.53;;;29.60;;
3541;SDS011;1785;47.388;8.538;2022-12-07T09:05:30;42.63;;;28.70;;
3541;SDS011;1785;47.388;8.538;2022-12-07T09:07:59;42.07;;;28.53;;
3541;SDS011;1785;47.388;8.538;2022-12-07T09:10:27;43.07;;;29.27;;
3541;SDS011;1785;47.388;8.538;2022-12-07T09:12:54;42.83;;;27.87;;
3541;SDS011;1785;47.388;8.538;2022-12-07T09:15:20;44.10;;;29.30;;
3541;SDS011;1785;47.388;8.538;2022-12-07T09:17:46;51.60;;;29.93;;
3541;SDS011;1785;47.388;8.538;2022-12-07T09:20:12;47.00;;;30.87;;
3541;SDS011;1785;47.388;8.538;2022-12-07T09:22:39;42.83;;;29.73;;
3541;SDS011;1785;47.388;8.538;2022-12-07T09:25:05;44.07;;;28.10;;
3541;SDS011;1785;47.388;8.538;2022-12-07T09:27:33;42.90;;;30.53;;
3541;SDS011;1785;47.388;8.538;2022-12-07T09:29:59;48.30;;;31.43;;
3541;SDS011;1785;47.388;8.538;2022-12-07T09:32:25;46.33;;;29.20;;
3541;SDS011;1785;47.388;8.538;2022-12-07T09:34:52;45.00;;;29.53;;
3541;SDS011;1785;47.388;8.538;2022-12-07T09:37:18;39.10;;;27.30;;
3541;SDS011;1785;47.388;8.538;2022-12-07T09:39:44;41.10;;;28.20;;
3541;SDS011;1785;47.388;8.538;2022-12-07T09:42:11;45.43;;;29.10;;
3541;SDS011;1785;47.388;8.538;2022-12-07T09:44:52;40.10;;;28.87;;
3541;SDS011;1785;47.388;8.538;2022-12-07T09:47:19;43.27;;;27.23;;
3541;SDS011;1785;47.388;8.538;2022-12-07T09:49:46;43.83;;;29.03;;
3541;SDS011;1785;47.388;8.538;2022-12-07T09:52:17;42.80;;;29.53;;
3541;SDS011;1785;47.388;8.538;2022-12-07T09:54:45;39.63;;;28.03;;
3541;SDS011;1785;47.388;8.538;2022-12-07T09:57:13;40.53;;;27.97;;
3541;SDS011;1785;47.388;8.538;2022-12-07T09:59:40;44.43;;;30.17;;
3541;SDS011;1785;47.388;8.538;2022-12-07T10:02:24;41.10;;;27.37;;
3541;SDS011;1785;47.388;8.538;2022-12-07T10:04:58;39.90;;;27.07;;
3541;SDS011;1785;47.388;8.538;2022-12-07T10:07:25;37.70;;;28.37;;
3541;SDS011;1785;47.388;8.538;2022-12-07T10:09:51;41.50;;;28.40;;
3541;SDS011;1785;47.388;8.538;2022-12-07T10:12:18;40.80;;;27.60;;
3541;SDS011;1785;47.388;8.538;2022-12-07T10:14:53;41.50;;;27.70;;
3541;SDS011;1785;47.388;8.538;2022-12-07T10:17:31;41.80;;;30.90;;
3541;SDS011;1785;47.388;8.538;2022-12-07T10:20:14;40.03;;;27.80;;
3541;SDS011;1785;47.388;8.538;2022-12-07T10:22:59;43.93;;;27.40;;
3541;SDS011;1785;47.388;8.538;2022-12-07T10:25:28;36.60;;;27.90;;
3541;SDS011;1785;47.388;8.538;2022-12-07T10:27:58;39.43;;;25.73;;
3541;SDS011;1785;47.388;8.538;2022-12-07T10:30:26;40.57;;;26.93;;
3541;SDS011;1785;47.388;8.538;2022-12-07T10:32:54;38.70;;;27.83;;
3541;SDS011;1785;47.388;8.538;2022-12-07T10:35:22;39.70;;;26.40;;
3541;SDS011;1785;47.388;8.538;2022-12-07T10:37:50;43.03;;;26.10;;
3541;SDS011;1785;47.388;8.538;2022-12-07T10:40:25;38.03;;;26.10;;
3541;SDS011;1785;47.388;8.538;2022-12-07T10:43:00;39.10;;;26.40;;
3541;SDS011;1785;47.388;8.538;2022-12-07T10:45:28;39.93;;;27.20;;
3541;SDS011;1785;47.388;8.538;2022-12-07T10:47:57;44.00;;;27.17;;
3541;SDS011;1785;47.388;8.538;2022-12-07T10:50:34;37.80;;;26.80;;
3541;SDS011;1785;47.388;8.538;2022-12-07T10:56:20;39.33;;;25.50;;
3541;SDS011;1785;47.388;8.538;2022-12-07T10:59:04;30.83;;;24.03;;
3541;SDS011;1785;47.388;8.538;2022-12-07T11:01:53;34.10;;;25.80;;
3541;SDS011;1785;47.388;8.538;2022-12-07T11:04:29;37.57;;;26.43;;
3541;SDS011;1785;47.388;8.538;2022-12-07T11:07:04;34.23;;;26.40;;
3541;SDS011;1785;47.388;8.538;2022-12-07T11:09:49;35.37;;;24.60;;
3541;SDS011;1785;47.388;8.538;2022-12-07T11:12:26;31.80;;;24.50;;
3541;SDS011;1785;47.388;8.538;2022-12-07T11:15:01;36.67;;;24.93;;
3541;SDS011;1785;47.388;8.538;2022-12-07T11:17:34;29.70;;;24.30;;
3541;SDS011;1785;47.388;8.538;2022-12-07T11:20:12;33.03;;;23.03;;
3541;SDS011;1785;47.388;8.538;2022-12-07T11:23:02;31.70;;;23.90;;
3541;SDS011;1785;47.388;8.538;2022-12-07T11:25:38;31.60;;;23.57;;
3541;SDS011;1785;47.388;8.538;2022-12-07T11:28:17;26.70;;;20.73;;
3541;SDS011;1785;47.388;8.538;2022-12-07T11:30:55;30.47;;;22.40;;
3541;SDS011;1785;47.388;8.538;2022-12-07T11:33:32;29.40;;;23.00;;
3541;SDS011;1785;47.388;8.538;2022-12-07T11:36:06;29.07;;;22.50;;
3541;SDS011;1785;47.388;8.538;2022-12-07T11:38:45;29.03;;;23.27;;
3541;SDS011;1785;47.388;8.538;2022-12-07T11:41:16;26.23;;;21.77;;
3541;SDS011;1785;47.388;8.538;2022-12-07T11:43:53;26.00;;;20.93;;
3541;SDS011;1785;47.388;8.538;2022-12-07T11:46:22;27.90;;;21.43;;
3541;SDS011;1785;47.388;8.538;2022-12-07T11:48:55;24.13;;;19.90;;
3541;SDS011;1785;47.388;8.538;2022-12-07T11:51:34;23.30;;;19.13;;
3541;SDS011;1785;47.388;8.538;2022-12-07T11:54:05;23.73;;;20.30;;
3541;SDS011;1785;47.388;8.538;2022-12-07T11:56:39;28.67;;;22.73;;
3541;SDS011;1785;47.388;8.538;2022-12-07T11:59:08;22.07;;;18.20;;
3541;SDS011;1785;47.388;8.538;2022-12-07T12:01:42;21.03;;;17.67;;
3541;SDS011;1785;47.388;8.538;2022-12-07T12:04:20;20.20;;;16.70;;
3541;SDS011;1785;47.388;8.538;2022-12-07T12:06:54;19.03;;;16.17;;
3541;SDS011;1785;47.388;8.538;2022-12-07T12:09:21;22.33;;;17.80;;
3541;SDS011;1785;47.388;8.538;2022-12-07T12:12:03;22.20;;;19.40;;
3541;SDS011;1785;47.388;8.538;2022-12-07T12:14:48;24.50;;;17.47;;
3541;SDS011;1785;47.388;8.538;2022-12-07T12:17:49;24.07;;;18.33;;
3541;SDS011;1785;47.388;8.538;2022-12-07T12:20:28;21.23;;;17.77;;
3541;SDS011;1785;47.388;8.538;2022-12-07T12:22:59;22.23;;;18.07;;
3541;SDS011;1785;47.388;8.538;2022-12-07T12:25:34;21.20;;;17.00;;
3541;SDS011;1785;47.388;8.538;2022-12-07T12:28:04;20.00;;;16.50;;
3541;SDS011;1785;47.388;8.538;2022-12-07T12:30:34;20.87;;;17.60;;
3541;SDS011;1785;47.388;8.538;2022-12-07T12:33:05;24.63;;;18.23;;
3541;SDS011;1785;47.388;8.538;2022-12-07T12:35:40;27.90;;;20.43;;
3541;SDS011;1785;47.388;8.538;2022-12-07T12:47:54;20.83;;;17.73;;
3541;SDS011;1785;47.388;8.538;2022-12-07T12:50:23;18.53;;;16.53;;
3541;SDS011;1785;47.388;8.538;2022-12-07T12:53:02;20.20;;;14.90;;
3541;SDS011;1785;47.388;8.538;2022-12-07T12:55:58;22.13;;;16.73;;
3541;SDS011;1785;47.388;8.538;2022-12-07T12:58:41;20.60;;;17.30;;
3541;SDS011;1785;47.388;8.538;2022-12-07T13:01:36;19.00;;;15.30;;
3541;SDS011;1785;47.388;8.538;2022-12-07T13:04:14;17.83;;;15.60;;
3541;SDS011;1785;47.388;8.538;2022-12-07T13:06:50;22.10;;;15.47;;
3541;SDS011;1785;47.388;8.538;2022-12-07T13:09:19;24.43;;;15.30;;
3541;SDS011;1785;47.388;8.538;2022-12-07T13:11:49;21.60;;;17.50;;
3541;SDS011;1785;47.388;8.538;2022-12-07T13:23:29;19.00;;;16.23;;
3541;SDS011;1785;47.388;8.538;2022-12-07T13:26:12;18.33;;;15.80;;
3541;SDS011;1785;47.388;8.538;2022-12-07T13:28:43;16.83;;;14.77;;
3541;SDS011;1785;47.388;8.538;2022-12-07T13:31:13;17.77;;;13.90;;
3541;SDS011;1785;47.388;8.538;2022-12-07T13:34:26;17.33;;;14.00;;
3541;SDS011;1785;47.388;8.538;2022-12-07T13:36:54;16.10;;;14.33;;
3541;SDS011;1785;47.388;8.538;2022-12-07T13:39:21;14.00;;;12.50;;
3541;SDS011;1785;47.388;8.538;2022-12-07T13:41:50;18.60;;;13.87;;
3541;SDS011;1785;47.388;8.538;2022-12-07T13:44:19;24.50;;;16.33;;
3541;SDS011;1785;47.388;8.538;2022-12-07T13:46:51;19.93;;;15.87;;
3541;SDS011;1785;47.388;8.538;2022-12-07T13:49:23;15.03;;;13.40;;
3541;SDS011;1785;47.388;8.538;2022-12-07T13:51:51;15.20;;;13.60;;
3541;SDS011;1785;47.388;8.538;2022-12-07T13:54:19;17.87;;;13.80;;
3541;SDS011;1785;47.388;8.538;2022-12-07T13:56:49;14.40;;;13.00;;
3541;SDS011;1785;47.388;8.538;2022-12-07T13:59:18;14.90;;;13.30;;
3541;SDS011;1785;47.388;8.538;2022-12-07T14:01:47;15.70;;;13.50;;
3541;SDS011;1785;47.388;8.538;2022-12-07T14:04:19;14.63;;;12.40;;
3541;SDS011;1785;47.388;8.538;2022-12-07T14:06:56;14.63;;;12.07;;
3541;SDS011;1785;47.388;8.538;2022-12-07T14:09:24;13.07;;;11.30;;
3541;SDS011;1785;47.388;8.538;2022-12-07T14:11:51;12.47;;;11.17;;
3541;SDS011;1785;47.388;8.538;2022-12-07T14:14:21;13.03;;;11.23;;
3541;SDS011;1785;47.388;8.538;2022-12-07T14:16:56;13.63;;;11.37;;
3541;SDS011;1785;47.388;8.538;2022-12-07T14:19:43;13.20;;;11.53;;
3541;SDS011;1785;47.388;8.538;2022-12-07T14:22:19;14.87;;;12.73;;
3541;SDS011;1785;47.388;8.538;2022-12-07T14:24:50;14.47;;;12.87;;
3541;SDS011;1785;47.388;8.538;2022-12-07T14:27:23;13.37;;;11.87;;
3541;SDS011;1785;47.388;8.538;2022-12-07T14:29:56;14.30;;;12.30;;
3541;SDS011;1785;47.388;8.538;2022-12-07T14:32:23;12.57;;;11.30;;
3541;SDS011;1785;47.388;8.538;2022-12-07T14:34:57;17.03;;;12.70;;
3541;SDS011;1785;47.388;8.538;2022-12-07T14:37:25;14.17;;;11.57;;
3541;SDS011;1785;47.388;8.538;2022-12-07T14:39:53;15.97;;;13.33;;
3541;SDS011;1785;47.388;8.538;2022-12-07T14:42:19;13.90;;;12.40;;
3541;SDS011;1785;47.388;8.538;2022-12-07T14:44:47;13.10;;;11.80;;
3541;SDS011;1785;47.388;8.538;2022-12-07T14:47:14;16.67;;;13.00;;
3541;SDS011;1785;47.388;8.538;2022-12-07T14:49:41;15.90;;;13.10;;
3541;SDS011;1785;47.388;8.538;2022-12-07T14:52:09;15.80;;;12.10;;
3541;SDS011;1785;47.388;8.538;2022-12-07T14:54:40;20.70;;;14.13;;
3541;SDS011;1785;47.388;8.538;2022-12-07T14:57:07;14.63;;;13.00;;
3541;SDS011;1785;47.388;8.538;2022-12-07T14:59:34;13.90;;;12.13;;
3541;SDS011;1785;47.388;8.538;2022-12-07T15:02:00;13.80;;;11.90;;
3541;SDS011;1785;47.388;8.538;2022-12-07T15:04:27;13.77;;;11.47;;
3541;SDS011;1785;47.388;8.538;2022-12-07T15:06:55;13.53;;;12.13;;
3541;SDS011;1785;47.388;8.538;2022-12-07T15:09:22;13.70;;;12.23;;
3541;SDS011;1785;47.388;8.538;2022-12-07T15:11:49;14.27;;;12.60;;
3541;SDS011;1785;47.388;8.538;2022-12-07T15:14:15;13.47;;;12.07;;
3541;SDS011;1785;47.388;8.538;2022-12-07T15:16:42;14.33;;;12.73;;
3541;SDS011;1785;47.388;8.538;2022-12-07T15:19:10;14.07;;;12.57;;
3541;SDS011;1785;47.388;8.538;2022-12-07T15:21:39;15.13;;;12.80;;
3541;SDS011;1785;47.388;8.538;2022-12-07T15:24:07;18.10;;;12.43;;
3541;SDS011;1785;47.388;8.538;2022-12-07T15:26:34;15.53;;;13.90;;